sensor_id;sensor_type;location;lat;lon;timestamp;P1;durP1;ratioP1;P2;durP2;ratioP2
11498;SDS011;5806;48.748;9.278;2023-04-06T00:01:21;8.80;;;7.67;;
11498;SDS011;5806;48.748;9.278;2023-04-06T00:03:49;11.70;;;7.40;;
11498;SDS011;5806;48.748;9.278;2023-04-06T00:06:16;11.30;;;7.53;;
11498;SDS011;5806;48.748;9.278;2023-04-06T00:08:44;10.47;;;7.63;;
11498;SDS011;5806;48.748;9.278;2023-04-06T00:11:11;11.67;;;7.83;;
11498;SDS011;5806;48.748;9.278;2023-04-06T00:13:39;10.00;;;7.50;;
11498;SDS011;5806;48.748;9.278;2023-04-06T00:16:06;12.00;;;7.40;;
11498;SDS011;5806;48.748;9.278;2023-04-06T00:18:34;11.30;;;7.40;;
11498;SDS011;5806;48.748;9.278;2023-04-06T00:21:02;10.53;;;7.27;;
11498;SDS011;5806;48.748;9.278;2023-04-06T00:23:30;8.93;;;7.67;;
11498;SDS011;5806;48.748;9.278;2023-04-06T00:25:58;9.37;;;7.40;;
11498;SDS011;5806;48.748;9.278;2023-04-06T00:28:26;11.57;;;7.90;;
11498;SDS011;5806;48.748;9.278;2023-04-06T00:30:55;9.00;;;7.37;;
11498;SDS011;5806;48.748;9.278;2023-04-06T00:33:23;9.60;;;7.20;;
11498;SDS011;5806;48.748;9.278;2023-04-06T00:35:51;9.50;;;7.33;;
11498;SDS011;5806;48.748;9.278;2023-04-06T00:38:18;9.57;;;7.67;;
11498;SDS011;5806;48.748;9.278;2023-04-06T00:40:46;11.27;;;8.17;;
11498;SDS011;5806;48.748;9.278;2023-04-06T00:43:14;10.07;;;7.67;;
11498;SDS011;5806;48.748;9.278;2023-04-06T00:45:41;9.87;;;7.23;;
11498;SDS011;5806;48.748;9.278;2023-04-06T00:48:09;12.57;;;7.90;;
11498;SDS011;5806;48.748;9.278;2023-04-06T00:50:36;10.83;;;7.40;;
11498;SDS011;5806;48.748;9.278;2023-04-06T00:53:04;13.10;;;8.30;;
11498;SDS011;5806;48.748;9.278;2023-04-06T00:55:31;14.30;;;8.00;;
11498;SDS011;5806;48.748;9.278;2023-04-06T00:58:01;11.70;;;8.37;;
11498;SDS011;5806;48.748;9.278;2023-04-06T01:00:29;11.63;;;8.23;;
11498;SDS011;5806;48.748;9.278;2023-04-06T01:02:58;12.50;;;8.03;;
11498;SDS011;5806;48.748;9.278;2023-04-06T01:05:27;10.60;;;8.30;;
11498;SDS011;5806;48.748;9.278;2023-04-06T01:07:54;9.97;;;7.97;;
11498;SDS011;5806;48.748;9.278;2023-04-06T01:10:26;12.83;;;9.17;;
11498;SDS011;5806;48.748;9.278;2023-04-06T01:12:55;14.83;;;8.57;;
11498;SDS011;5806;48.748;9.278;2023-04-06T01:15:22;12.07;;;8.50;;
11498;SDS011;5806;48.748;9.278;2023-04-06T01:17:51;11.73;;;8.77;;
11498;SDS011;5806;48.748;9.278;2023-04-06T01:20:18;10.17;;;8.20;;
11498;SDS011;5806;48.748;9.278;2023-04-06T01:22:46;11.10;;;8.80;;
11498;SDS011;5806;48.748;9.278;2023-04-06T01:25:13;10.73;;;8.20;;
11498;SDS011;5806;48.748;9.278;2023-04-06T01:27:41;10.67;;;8.07;;
11498;SDS011;5806;48.748;9.278;2023-04-06T01:30:08;11.50;;;8.67;;
11498;SDS011;5806;48.748;9.278;2023-04-06T01:32:38;11.17;;;7.73;;
11498;SDS011;5806;48.748;9.278;2023-04-06T01:35:05;10.57;;;7.97;;
11498;SDS011;5806;48.748;9.278;2023-04-06T01:37:33;11.13;;;8.63;;
11498;SDS011;5806;48.748;9.278;2023-04-06T01:40:00;10.90;;;8.17;;
11498;SDS011;5806;48.748;9.278;2023-04-06T01:42:28;13.03;;;9.23;;
11498;SDS011;5806;48.748;9.278;2023-04-06T01:44:55;9.27;;;7.70;;
11498;SDS011;5806;48.748;9.278;2023-04-06T01:47:23;11.17;;;7.73;;
11498;SDS011;5806;48.748;9.278;2023-04-06T01:49:51;11.63;;;7.93;;
11498;SDS011;5806;48.748;9.278;2023-04-06T01:52:18;11.67;;;8.50;;
11498;SDS011;5806;48.748;9.278;2023-04-06T01:54:46;10.57;;;8.30;;
11498;SDS011;5806;48.748;9.278;2023-04-06T01:57:13;13.07;;;7.97;;
11498;SDS011;5806;48.748;9.278;2023-04-06T01:59:41;10.90;;;8.10;;
11498;SDS011;5806;48.748;9.278;2023-04-06T02:02:08;12.07;;;8.90;;
11498;SDS011;5806;48.748;9.278;2023-04-06T02:04:37;10.33;;;7.23;;
11498;SDS011;5806;48.748;9.278;2023-04-06T02:07:05;13.50;;;8.87;;
11498;SDS011;5806;48.748;9.278;2023-04-06T02:09:33;11.63;;;8.40;;
11498;SDS011;5806;48.748;9.278;2023-04-06T02:12:00;12.23;;;8.33;;
11498;SDS011;5806;48.748;9.278;2023-04-06T02:14:28;12.20;;;9.17;;
11498;SDS011;5806;48.748;9.278;2023-04-06T02:16:55;10.60;;;8.30;;
11498;SDS011;5806;48.748;9.278;2023-04-06T02:19:23;11.27;;;7.97;;
11498;SDS011;5806;48.748;9.278;2023-04-06T02:21:50;11.30;;;8.03;;
11498;SDS011;5806;48.748;9.278;2023-04-06T02:24:18;14.60;;;8.40;;
11498;SDS011;5806;48.748;9.278;2023-04-06T02:26:45;9.83;;;8.23;;
11498;SDS011;5806;48.748;9.278;2023-04-06T02:29:13;10.60;;;7.10;;
11498;SDS011;5806;48.748;9.278;2023-04-06T02:31:40;11.53;;;8.07;;
11498;SDS011;5806;48.748;9.278;2023-04-06T02:34:08;10.80;;;7.90;;
11498;SDS011;5806;48.748;9.278;2023-04-06T02:36:37;10.53;;;7.70;;
11498;SDS011;5806;48.748;9.278;2023-04-06T02:39:05;11.00;;;7.97;;
11498;SDS011;5806;48.748;9.278;2023-04-06T02:41:32;9.97;;;8.57;;
11498;SDS011;5806;48.748;9.278;2023-04-06T02:44:00;10.97;;;7.77;;
11498;SDS011;5806;48.748;9.278;2023-04-06T02:46:27;10.43;;;8.17;;
11498;SDS011;5806;48.748;9.278;2023-04-06T02:48:55;12.83;;;8.77;;
11498;SDS011;5806;48.748;9.278;2023-04-06T02:51:24;9.00;;;7.30;;
11498;SDS011;5806;48.748;9.278;2023-04-06T02:53:51;12.10;;;7.40;;
11498;SDS011;5806;48.748;9.278;2023-04-06T02:56:19;11.07;;;7.47;;
11498;SDS011;5806;48.748;9.278;2023-04-06T02:58:47;12.07;;;7.73;;
11498;SDS011;5806;48.748;9.278;2023-04-06T03:01:15;9.93;;;7.80;;
11498;SDS011;5806;48.748;9.278;2023-04-06T03:03:42;9.87;;;7.37;;
11498;SDS011;5806;48.748;9.278;2023-04-06T03:06:10;12.20;;;7.37;;
11498;SDS011;5806;48.748;9.278;2023-04-06T03:08:37;11.10;;;7.40;;
11498;SDS011;5806;48.748;9.278;2023-04-06T03:11:05;10.10;;;7.37;;
11498;SDS011;5806;48.748;9.278;2023-04-06T03:13:32;9.00;;;7.40;;
11498;SDS011;5806;48.748;9.278;2023-04-06T03:16:00;8.43;;;7.17;;
11498;SDS011;5806;48.748;9.278;2023-04-06T03:18:27;10.37;;;7.63;;
11498;SDS011;5806;48.748;9.278;2023-04-06T03:20:55;9.50;;;7.03;;
11498;SDS011;5806;48.748;9.278;2023-04-06T03:23:22;9.73;;;7.73;;
11498;SDS011;5806;48.748;9.278;2023-04-06T03:25:50;9.67;;;7.30;;
11498;SDS011;5806;48.748;9.278;2023-04-06T03:28:17;11.03;;;7.70;;
11498;SDS011;5806;48.748;9.278;2023-04-06T03:30:45;10.63;;;7.33;;
11498;SDS011;5806;48.748;9.278;2023-04-06T03:33:12;10.10;;;6.67;;
11498;SDS011;5806;48.748;9.278;2023-04-06T03:35:40;9.87;;;7.57;;
11498;SDS011;5806;48.748;9.278;2023-04-06T03:38:07;10.47;;;7.90;;
11498;SDS011;5806;48.748;9.278;2023-04-06T03:40:35;9.47;;;7.47;;
11498;SDS011;5806;48.748;9.278;2023-04-06T03:43:03;9.03;;;7.03;;
11498;SDS011;5806;48.748;9.278;2023-04-06T03:45:31;10.00;;;7.23;;
11498;SDS011;5806;48.748;9.278;2023-04-06T03:47:58;8.40;;;7.03;;
11498;SDS011;5806;48.748;9.278;2023-04-06T03:50:26;8.97;;;7.07;;
11498;SDS011;5806;48.748;9.278;2023-04-06T03:52:53;10.73;;;7.43;;
11498;SDS011;5806;48.748;9.278;2023-04-06T03:55:21;9.40;;;6.77;;
11498;SDS011;5806;48.748;9.278;2023-04-06T03:57:48;8.70;;;7.00;;
11498;SDS011;5806;48.748;9.278;2023-04-06T04:00:16;9.80;;;7.57;;
11498;SDS011;5806;48.748;9.278;2023-04-06T04:02:43;9.73;;;7.00;;
11498;SDS011;5806;48.748;9.278;2023-04-06T04:05:10;9.50;;;7.47;;
11498;SDS011;5806;48.748;9.278;2023-04-06T04:07:38;9.97;;;7.03;;
11498;SDS011;5806;48.748;9.278;2023-04-06T04:10:06;11.13;;;7.70;;
11498;SDS011;5806;48.748;9.278;2023-04-06T04:12:33;9.80;;;7.73;;
11498;SDS011;5806;48.748;9.278;2023-04-06T04:15:01;9.90;;;7.40;;
11498;SDS011;5806;48.748;9.278;2023-04-06T04:17:29;8.57;;;7.17;;
11498;SDS011;5806;48.748;9.278;2023-04-06T04:19:57;10.47;;;7.53;;
11498;SDS011;5806;48.748;9.278;2023-04-06T04:22:24;10.50;;;7.17;;
11498;SDS011;5806;48.748;9.278;2023-04-06T04:24:53;8.50;;;6.70;;
11498;SDS011;5806;48.748;9.278;2023-04-06T04:27:20;9.87;;;7.57;;
11498;SDS011;5806;48.748;9.278;2023-04-06T04:29:48;8.87;;;6.60;;
11498;SDS011;5806;48.748;9.278;2023-04-06T04:32:15;8.67;;;6.67;;
11498;SDS011;5806;48.748;9.278;2023-04-06T04:34:43;8.27;;;6.40;;
11498;SDS011;5806;48.748;9.278;2023-04-06T04:37:10;8.97;;;7.53;;
11498;SDS011;5806;48.748;9.278;2023-04-06T04:39:38;10.97;;;7.57;;
11498;SDS011;5806;48.748;9.278;2023-04-06T04:42:06;11.07;;;7.93;;
11498;SDS011;5806;48.748;9.278;2023-04-06T04:44:33;11.83;;;8.10;;
11498;SDS011;5806;48.748;9.278;2023-04-06T04:47:00;10.03;;;7.43;;
11498;SDS011;5806;48.748;9.278;2023-04-06T04:49:28;10.03;;;7.40;;
11498;SDS011;5806;48.748;9.278;2023-04-06T04:51:56;11.57;;;7.47;;
11498;SDS011;5806;48.748;9.278;2023-04-06T04:54:23;11.90;;;7.83;;
11498;SDS011;5806;48.748;9.278;2023-04-06T04:56:51;9.40;;;7.80;;
11498;SDS011;5806;48.748;9.278;2023-04-06T04:59:18;10.00;;;7.30;;
11498;SDS011;5806;48.748;9.278;2023-04-06T05:01:46;9.50;;;6.93;;
11498;SDS011;5806;48.748;9.278;2023-04-06T05:04:13;7.90;;;7.10;;
11498;SDS011;5806;48.748;9.278;2023-04-06T05:06:40;9.80;;;7.50;;
11498;SDS011;5806;48.748;9.278;2023-04-06T05:09:08;9.60;;;7.53;;
11498;SDS011;5806;48.748;9.278;2023-04-06T05:11:35;8.50;;;7.57;;
11498;SDS011;5806;48.748;9.278;2023-04-06T05:14:03;10.00;;;7.10;;
11498;SDS011;5806;48.748;9.278;2023-04-06T05:16:32;9.73;;;7.37;;
11498;SDS011;5806;48.748;9.278;2023-04-06T05:19:00;10.43;;;7.50;;
11498;SDS011;5806;48.748;9.278;2023-04-06T05:21:28;10.80;;;6.67;;
11498;SDS011;5806;48.748;9.278;2023-04-06T05:23:55;12.17;;;8.00;;
11498;SDS011;5806;48.748;9.278;2023-04-06T05:26:23;11.43;;;7.80;;
11498;SDS011;5806;48.748;9.278;2023-04-06T05:28:51;9.33;;;7.23;;
11498;SDS011;5806;48.748;9.278;2023-04-06T05:31:20;11.13;;;7.27;;
11498;SDS011;5806;48.748;9.278;2023-04-06T05:33:47;12.43;;;8.30;;
11498;SDS011;5806;48.748;9.278;2023-04-06T05:36:15;10.03;;;7.60;;
11498;SDS011;5806;48.748;9.278;2023-04-06T05:38:42;10.63;;;7.47;;
11498;SDS011;5806;48.748;9.278;2023-04-06T05:41:10;10.93;;;7.10;;
11498;SDS011;5806;48.748;9.278;2023-04-06T05:43:38;9.63;;;7.73;;
11498;SDS011;5806;48.748;9.278;2023-04-06T05:46:05;11.23;;;7.23;;
11498;SDS011;5806;48.748;9.278;2023-04-06T05:48:33;9.43;;;7.40;;
11498;SDS011;5806;48.748;9.278;2023-04-06T05:51:00;9.33;;;7.00;;
11498;SDS011;5806;48.748;9.278;2023-04-06T05:53:29;11.97;;;7.80;;
11498;SDS011;5806;48.748;9.278;2023-04-06T05:55:57;10.50;;;7.57;;
11498;SDS011;5806;48.748;9.278;2023-04-06T05:58:26;11.03;;;7.10;;
11498;SDS011;5806;48.748;9.278;2023-04-06T06:01:02;10.10;;;7.27;;
11498;SDS011;5806;48.748;9.278;2023-04-06T06:03:25;12.90;;;7.43;;
11498;SDS011;5806;48.748;9.278;2023-04-06T06:05:53;8.77;;;7.03;;
11498;SDS011;5806;48.748;9.278;2023-04-06T06:08:22;8.20;;;6.53;;
11498;SDS011;5806;48.748;9.278;2023-04-06T06:10:49;10.10;;;7.10;;
11498;SDS011;5806;48.748;9.278;2023-04-06T06:13:17;11.40;;;7.63;;
11498;SDS011;5806;48.748;9.278;2023-04-06T06:15:44;10.73;;;7.97;;
11498;SDS011;5806;48.748;9.278;2023-04-06T06:18:12;10.40;;;7.23;;
11498;SDS011;5806;48.748;9.278;2023-04-06T06:20:39;9.33;;;6.80;;
11498;SDS011;5806;48.748;9.278;2023-04-06T06:23:07;9.43;;;6.30;;
11498;SDS011;5806;48.748;9.278;2023-04-06T06:25:34;8.40;;;5.77;;
11498;SDS011;5806;48.748;9.278;2023-04-06T06:28:02;7.23;;;5.17;;
11498;SDS011;5806;48.748;9.278;2023-04-06T06:30:31;6.50;;;5.90;;
11498;SDS011;5806;48.748;9.278;2023-04-06T06:32:58;7.43;;;6.40;;
11498;SDS011;5806;48.748;9.278;2023-04-06T06:35:26;6.50;;;5.47;;
11498;SDS011;5806;48.748;9.278;2023-04-06T06:37:53;7.47;;;5.40;;
11498;SDS011;5806;48.748;9.278;2023-04-06T06:40:21;6.77;;;5.50;;
11498;SDS011;5806;48.748;9.278;2023-04-06T06:42:49;7.67;;;6.03;;
11498;SDS011;5806;48.748;9.278;2023-04-06T06:45:17;10.03;;;6.53;;
11498;SDS011;5806;48.748;9.278;2023-04-06T06:47:45;9.30;;;7.13;;
11498;SDS011;5806;48.748;9.278;2023-04-06T06:50:13;9.87;;;6.63;;
11498;SDS011;5806;48.748;9.278;2023-04-06T06:52:40;10.87;;;7.17;;
11498;SDS011;5806;48.748;9.278;2023-04-06T06:55:09;7.60;;;6.07;;
11498;SDS011;5806;48.748;9.278;2023-04-06T06:57:37;8.80;;;6.10;;
11498;SDS011;5806;48.748;9.278;2023-04-06T07:00:05;11.07;;;6.10;;
11498;SDS011;5806;48.748;9.278;2023-04-06T07:02:37;7.77;;;5.97;;
11498;SDS011;5806;48.748;9.278;2023-04-06T07:05:04;7.07;;;6.17;;
11498;SDS011;5806;48.748;9.278;2023-04-06T07:07:32;9.70;;;6.57;;
11498;SDS011;5806;48.748;9.278;2023-04-06T07:10:00;8.07;;;6.07;;
11498;SDS011;5806;48.748;9.278;2023-04-06T07:12:28;9.50;;;6.37;;
11498;SDS011;5806;48.748;9.278;2023-04-06T07:14:57;10.03;;;6.60;;
11498;SDS011;5806;48.748;9.278;2023-04-06T07:17:24;9.50;;;6.40;;
11498;SDS011;5806;48.748;9.278;2023-04-06T07:19:52;10.27;;;6.97;;
11498;SDS011;5806;48.748;9.278;2023-04-06T07:22:19;10.87;;;5.80;;
11498;SDS011;5806;48.748;9.278;2023-04-06T07:24:47;8.50;;;6.70;;
11498;SDS011;5806;48.748;9.278;2023-04-06T07:27:14;9.47;;;6.10;;
11498;SDS011;5806;48.748;9.278;2023-04-06T07:29:42;10.77;;;7.00;;
11498;SDS011;5806;48.748;9.278;2023-04-06T07:32:10;10.53;;;6.80;;
11498;SDS011;5806;48.748;9.278;2023-04-06T07:34:37;8.80;;;6.60;;
11498;SDS011;5806;48.748;9.278;2023-04-06T07:37:05;8.00;;;5.73;;
11498;SDS011;5806;48.748;9.278;2023-04-06T07:39:32;8.43;;;6.47;;
11498;SDS011;5806;48.748;9.278;2023-04-06T07:42:00;10.97;;;6.77;;
11498;SDS011;5806;48.748;9.278;2023-04-06T07:44:27;9.13;;;6.70;;
11498;SDS011;5806;48.748;9.278;2023-04-06T07:46:55;10.63;;;7.10;;
11498;SDS011;5806;48.748;9.278;2023-04-06T07:49:23;9.47;;;6.80;;
11498;SDS011;5806;48.748;9.278;2023-04-06T07:51:51;9.83;;;7.23;;
11498;SDS011;5806;48.748;9.278;2023-04-06T07:54:18;10.97;;;7.00;;
11498;SDS011;5806;48.748;9.278;2023-04-06T07:56:46;9.67;;;6.70;;
11498;SDS011;5806;48.748;9.278;2023-04-06T07:59:13;12.30;;;6.87;;
11498;SDS011;5806;48.748;9.278;2023-04-06T08:01:41;10.17;;;7.47;;
11498;SDS011;5806;48.748;9.278;2023-04-06T08:04:08;10.43;;;6.87;;
11498;SDS011;5806;48.748;9.278;2023-04-06T08:06:36;12.53;;;6.80;;
11498;SDS011;5806;48.748;9.278;2023-04-06T08:09:03;9.93;;;7.67;;
11498;SDS011;5806;48.748;9.278;2023-04-06T08:11:31;10.43;;;6.40;;
11498;SDS011;5806;48.748;9.278;2023-04-06T08:13:58;13.27;;;7.50;;
11498;SDS011;5806;48.748;9.278;2023-04-06T08:16:25;12.60;;;7.50;;
11498;SDS011;5806;48.748;9.278;2023-04-06T08:18:53;10.40;;;7.00;;
11498;SDS011;5806;48.748;9.278;2023-04-06T08:21:20;11.47;;;7.67;;
11498;SDS011;5806;48.748;9.278;2023-04-06T08:23:48;10.20;;;7.00;;
11498;SDS011;5806;48.748;9.278;2023-04-06T08:26:16;12.53;;;7.70;;
11498;SDS011;5806;48.748;9.278;2023-04-06T08:28:43;10.57;;;7.57;;
11498;SDS011;5806;48.748;9.278;2023-04-06T08:31:10;11.93;;;7.57;;
11498;SDS011;5806;48.748;9.278;2023-04-06T08:33:38;11.30;;;8.33;;
11498;SDS011;5806;48.748;9.278;2023-04-06T08:36:14;10.60;;;7.43;;
11498;SDS011;5806;48.748;9.278;2023-04-06T08:38:39;12.77;;;7.83;;
11498;SDS011;5806;48.748;9.278;2023-04-06T08:41:09;9.97;;;7.40;;
11498;SDS011;5806;48.748;9.278;2023-04-06T08:43:43;11.40;;;7.17;;
11498;SDS011;5806;48.748;9.278;2023-04-06T08:46:10;10.33;;;7.50;;
11498;SDS011;5806;48.748;9.278;2023-04-06T08:48:39;10.17;;;7.50;;
11498;SDS011;5806;48.748;9.278;2023-04-06T08:51:08;12.07;;;7.40;;
11498;SDS011;5806;48.748;9.278;2023-04-06T08:53:36;9.90;;;7.03;;
11498;SDS011;5806;48.748;9.278;2023-04-06T08:56:04;10.30;;;7.60;;
11498;SDS011;5806;48.748;9.278;2023-04-06T08:58:37;14.33;;;7.57;;
11498;SDS011;5806;48.748;9.278;2023-04-06T09:01:07;14.83;;;8.07;;
11498;SDS011;5806;48.748;9.278;2023-04-06T09:03:37;16.53;;;8.17;;
11498;SDS011;5806;48.748;9.278;2023-04-06T09:06:06;11.07;;;7.33;;
11498;SDS011;5806;48.748;9.278;2023-04-06T09:08:34;10.87;;;7.77;;
11498;SDS011;5806;48.748;9.278;2023-04-06T09:11:04;12.13;;;7.67;;
11498;SDS011;5806;48.748;9.278;2023-04-06T09:13:31;10.07;;;7.20;;
11498;SDS011;5806;48.748;9.278;2023-04-06T09:16:01;12.73;;;7.90;;
11498;SDS011;5806;48.748;9.278;2023-04-06T09:18:31;10.13;;;7.73;;
11498;SDS011;5806;48.748;9.278;2023-04-06T09:21:01;12.47;;;8.13;;
11498;SDS011;5806;48.748;9.278;2023-04-06T09:23:30;12.83;;;8.93;;
11498;SDS011;5806;48.748;9.278;2023-04-06T09:26:08;14.50;;;9.40;;
11498;SDS011;5806;48.748;9.278;2023-04-06T09:28:43;15.13;;;8.83;;
11498;SDS011;5806;48.748;9.278;2023-04-06T09:31:13;12.50;;;8.63;;
11498;SDS011;5806;48.748;9.278;2023-04-06T09:33:43;15.47;;;9.20;;
11498;SDS011;5806;48.748;9.278;2023-04-06T09:36:12;13.17;;;8.63;;
11498;SDS011;5806;48.748;9.278;2023-04-06T09:39:00;15.10;;;9.77;;
11498;SDS011;5806;48.748;9.278;2023-04-06T09:41:30;13.37;;;8.73;;
11498;SDS011;5806;48.748;9.278;2023-04-06T09:44:08;13.40;;;8.40;;
11498;SDS011;5806;48.748;9.278;2023-04-06T09:46:38;13.80;;;8.63;;
11498;SDS011;5806;48.748;9.278;2023-04-06T09:49:07;14.00;;;9.17;;
11498;SDS011;5806;48.748;9.278;2023-04-06T09:51:46;12.53;;;8.97;;
11498;SDS011;5806;48.748;9.278;2023-04-06T09:54:16;13.90;;;9.33;;
11498;SDS011;5806;48.748;9.278;2023-04-06T10:02:32;14.97;;;9.33;;
11498;SDS011;5806;48.748;9.278;2023-04-06T10:07:47;13.60;;;9.47;;
11498;SDS011;5806;48.748;9.278;2023-04-06T10:10:17;16.57;;;9.30;;
11498;SDS011;5806;48.748;9.278;2023-04-06T10:12:44;15.47;;;9.43;;
11498;SDS011;5806;48.748;9.278;2023-04-06T10:15:14;14.77;;;9.00;;
11498;SDS011;5806;48.748;9.278;2023-04-06T10:17:43;15.73;;;9.53;;
11498;SDS011;5806;48.748;9.278;2023-04-06T10:23:01;19.43;;;10.00;;
11498;SDS011;5806;48.748;9.278;2023-04-06T10:25:32;15.13;;;9.80;;
11498;SDS011;5806;48.748;9.278;2023-04-06T10:28:10;15.07;;;9.37;;
11498;SDS011;5806;48.748;9.278;2023-04-06T10:30:33;17.90;;;10.00;;
11498;SDS011;5806;48.748;9.278;2023-04-06T10:33:12;14.50;;;9.20;;
11498;SDS011;5806;48.748;9.278;2023-04-06T10:35:40;17.83;;;9.70;;
11498;SDS011;5806;48.748;9.278;2023-04-06T10:38:08;17.67;;;9.63;;
11498;SDS011;5806;48.748;9.278;2023-04-06T10:40:37;15.20;;;9.50;;
11498;SDS011;5806;48.748;9.278;2023-04-06T10:43:12;17.97;;;10.83;;
11498;SDS011;5806;48.748;9.278;2023-04-06T10:45:42;15.00;;;9.73;;
11498;SDS011;5806;48.748;9.278;2023-04-06T10:48:16;17.30;;;9.93;;
11498;SDS011;5806;48.748;9.278;2023-04-06T10:50:46;15.50;;;10.20;;
11498;SDS011;5806;48.748;9.278;2023-04-06T10:53:25;15.57;;;9.53;;
11498;SDS011;5806;48.748;9.278;2023-04-06T10:55:58;17.83;;;10.60;;
11498;SDS011;5806;48.748;9.278;2023-04-06T10:58:28;16.43;;;9.80;;
11498;SDS011;5806;48.748;9.278;2023-04-06T11:00:56;14.20;;;9.63;;
11498;SDS011;5806;48.748;9.278;2023-04-06T11:03:25;18.63;;;9.97;;
11498;SDS011;5806;48.748;9.278;2023-04-06T11:05:52;16.77;;;10.50;;
11498;SDS011;5806;48.748;9.278;2023-04-06T11:08:26;16.90;;;9.97;;
11498;SDS011;5806;48.748;9.278;2023-04-06T11:11:05;19.30;;;11.00;;
11498;SDS011;5806;48.748;9.278;2023-04-06T11:13:39;17.67;;;10.63;;
11498;SDS011;5806;48.748;9.278;2023-04-06T11:16:19;16.50;;;10.90;;
11498;SDS011;5806;48.748;9.278;2023-04-06T11:18:47;16.67;;;10.97;;
11498;SDS011;5806;48.748;9.278;2023-04-06T11:24:09;13.83;;;9.40;;
11498;SDS011;5806;48.748;9.278;2023-04-06T11:26:42;16.17;;;10.67;;
11498;SDS011;5806;48.748;9.278;2023-04-06T11:29:12;13.67;;;10.43;;
11498;SDS011;5806;48.748;9.278;2023-04-06T11:34:28;17.40;;;10.80;;
11498;SDS011;5806;48.748;9.278;2023-04-06T11:36:57;18.03;;;10.53;;
11498;SDS011;5806;48.748;9.278;2023-04-06T11:39:28;20.03;;;10.73;;
11498;SDS011;5806;48.748;9.278;2023-04-06T11:41:59;15.80;;;10.40;;
11498;SDS011;5806;48.748;9.278;2023-04-06T11:44:29;17.00;;;10.50;;
11498;SDS011;5806;48.748;9.278;2023-04-06T11:47:06;14.83;;;10.30;;
11498;SDS011;5806;48.748;9.278;2023-04-06T11:49:30;16.80;;;10.20;;
11498;SDS011;5806;48.748;9.278;2023-04-06T11:51:58;17.57;;;10.67;;
11498;SDS011;5806;48.748;9.278;2023-04-06T11:54:30;17.33;;;10.73;;
11498;SDS011;5806;48.748;9.278;2023-04-06T11:56:59;16.33;;;9.60;;
11498;SDS011;5806;48.748;9.278;2023-04-06T11:59:28;17.17;;;10.60;;
11498;SDS011;5806;48.748;9.278;2023-04-06T12:01:56;17.17;;;10.27;;
11498;SDS011;5806;48.748;9.278;2023-04-06T12:04:24;15.90;;;9.63;;
11498;SDS011;5806;48.748;9.278;2023-04-06T12:06:51;17.80;;;10.33;;
11498;SDS011;5806;48.748;9.278;2023-04-06T12:09:19;16.27;;;10.13;;
11498;SDS011;5806;48.748;9.278;2023-04-06T12:11:46;16.20;;;10.00;;
11498;SDS011;5806;48.748;9.278;2023-04-06T12:14:14;16.77;;;9.87;;
11498;SDS011;5806;48.748;9.278;2023-04-06T12:16:41;13.70;;;9.50;;
11498;SDS011;5806;48.748;9.278;2023-04-06T12:19:09;17.30;;;10.13;;
11498;SDS011;5806;48.748;9.278;2023-04-06T12:21:36;18.70;;;9.73;;
11498;SDS011;5806;48.748;9.278;2023-04-06T12:24:04;15.53;;;10.17;;
11498;SDS011;5806;48.748;9.278;2023-04-06T12:26:32;16.97;;;10.07;;
11498;SDS011;5806;48.748;9.278;2023-04-06T12:29:00;14.83;;;10.37;;
11498;SDS011;5806;48.748;9.278;2023-04-06T12:31:29;15.63;;;9.37;;
11498;SDS011;5806;48.748;9.278;2023-04-06T12:33:57;14.77;;;9.23;;
11498;SDS011;5806;48.748;9.278;2023-04-06T12:36:24;15.83;;;9.30;;
11498;SDS011;5806;48.748;9.278;2023-04-06T12:38:52;16.03;;;9.60;;
11498;SDS011;5806;48.748;9.278;2023-04-06T12:41:19;14.03;;;9.30;;
11498;SDS011;5806;48.748;9.278;2023-04-06T12:43:48;12.93;;;8.00;;
11498;SDS011;5806;48.748;9.278;2023-04-06T12:46:15;10.13;;;6.77;;
11498;SDS011;5806;48.748;9.278;2023-04-06T12:48:43;12.47;;;7.07;;
11498;SDS011;5806;48.748;9.278;2023-04-06T12:51:10;11.30;;;6.63;;
11498;SDS011;5806;48.748;9.278;2023-04-06T12:53:38;8.50;;;6.37;;
11498;SDS011;5806;48.748;9.278;2023-04-06T12:56:13;7.50;;;5.60;;
11498;SDS011;5806;48.748;9.278;2023-04-06T12:58:43;10.10;;;5.67;;
11498;SDS011;5806;48.748;9.278;2023-04-06T13:01:11;8.27;;;5.57;;
11498;SDS011;5806;48.748;9.278;2023-04-06T13:03:39;10.80;;;5.87;;
11498;SDS011;5806;48.748;9.278;2023-04-06T13:06:07;11.13;;;6.17;;
11498;SDS011;5806;48.748;9.278;2023-04-06T13:08:36;8.50;;;6.40;;
11498;SDS011;5806;48.748;9.278;2023-04-06T13:11:05;11.30;;;6.80;;
11498;SDS011;5806;48.748;9.278;2023-04-06T13:13:35;10.10;;;6.87;;
11498;SDS011;5806;48.748;9.278;2023-04-06T13:16:04;9.87;;;6.80;;
11498;SDS011;5806;48.748;9.278;2023-04-06T13:18:35;7.70;;;5.50;;
11498;SDS011;5806;48.748;9.278;2023-04-06T13:21:05;9.60;;;6.67;;
11498;SDS011;5806;48.748;9.278;2023-04-06T13:23:33;9.33;;;7.13;;
11498;SDS011;5806;48.748;9.278;2023-04-06T13:26:02;11.93;;;7.03;;
11498;SDS011;5806;48.748;9.278;2023-04-06T13:28:34;10.50;;;6.97;;
11498;SDS011;5806;48.748;9.278;2023-04-06T13:31:06;9.57;;;6.83;;
11498;SDS011;5806;48.748;9.278;2023-04-06T13:33:33;9.47;;;6.20;;
11498;SDS011;5806;48.748;9.278;2023-04-06T13:36:01;11.23;;;6.60;;
11498;SDS011;5806;48.748;9.278;2023-04-06T13:38:29;10.70;;;6.77;;
11498;SDS011;5806;48.748;9.278;2023-04-06T13:40:57;9.70;;;7.17;;
11498;SDS011;5806;48.748;9.278;2023-04-06T13:43:24;11.67;;;6.77;;
11498;SDS011;5806;48.748;9.278;2023-04-06T13:45:52;9.30;;;6.60;;
11498;SDS011;5806;48.748;9.278;2023-04-06T13:48:23;10.27;;;7.60;;
11498;SDS011;5806;48.748;9.278;2023-04-06T13:50:51;9.97;;;6.90;;
11498;SDS011;5806;48.748;9.278;2023-04-06T13:53:19;9.13;;;7.23;;
11498;SDS011;5806;48.748;9.278;2023-04-06T13:55:53;13.83;;;7.70;;
11498;SDS011;5806;48.748;9.278;2023-04-06T13:58:21;9.73;;;7.63;;
11498;SDS011;5806;48.748;9.278;2023-04-06T14:00:48;10.83;;;7.90;;
11498;SDS011;5806;48.748;9.278;2023-04-06T14:03:16;11.33;;;7.70;;
11498;SDS011;5806;48.748;9.278;2023-04-06T14:05:44;10.23;;;6.87;;
11498;SDS011;5806;48.748;9.278;2023-04-06T14:08:12;11.03;;;7.20;;
11498;SDS011;5806;48.748;9.278;2023-04-06T14:10:39;8.83;;;6.33;;
11498;SDS011;5806;48.748;9.278;2023-04-06T14:13:07;9.07;;;5.90;;
11498;SDS011;5806;48.748;9.278;2023-04-06T14:15:36;8.47;;;5.67;;
11498;SDS011;5806;48.748;9.278;2023-04-06T14:18:04;8.57;;;6.17;;
11498;SDS011;5806;48.748;9.278;2023-04-06T14:20:32;11.60;;;6.67;;
11498;SDS011;5806;48.748;9.278;2023-04-06T14:23:00;11.00;;;6.53;;
11498;SDS011;5806;48.748;9.278;2023-04-06T14:25:28;11.60;;;7.50;;
11498;SDS011;5806;48.748;9.278;2023-04-06T14:27:57;11.57;;;7.03;;
11498;SDS011;5806;48.748;9.278;2023-04-06T14:30:24;11.67;;;7.47;;
11498;SDS011;5806;48.748;9.278;2023-04-06T14:32:56;12.00;;;7.00;;
11498;SDS011;5806;48.748;9.278;2023-04-06T14:35:25;13.77;;;7.10;;
11498;SDS011;5806;48.748;9.278;2023-04-06T14:37:53;9.53;;;7.00;;
11498;SDS011;5806;48.748;9.278;2023-04-06T14:40:22;10.77;;;7.03;;
11498;SDS011;5806;48.748;9.278;2023-04-06T14:42:50;9.93;;;6.10;;
11498;SDS011;5806;48.748;9.278;2023-04-06T14:45:18;11.60;;;5.60;;
11498;SDS011;5806;48.748;9.278;2023-04-06T14:47:47;6.70;;;5.47;;
11498;SDS011;5806;48.748;9.278;2023-04-06T14:50:14;8.97;;;5.70;;
11498;SDS011;5806;48.748;9.278;2023-04-06T14:52:42;8.70;;;6.03;;
11498;SDS011;5806;48.748;9.278;2023-04-06T14:55:11;8.10;;;5.90;;
11498;SDS011;5806;48.748;9.278;2023-04-06T14:57:39;9.73;;;6.23;;
11498;SDS011;5806;48.748;9.278;2023-04-06T15:00:07;8.27;;;6.10;;
11498;SDS011;5806;48.748;9.278;2023-04-06T15:02:35;9.33;;;6.40;;
11498;SDS011;5806;48.748;9.278;2023-04-06T15:05:03;8.77;;;6.67;;
11498;SDS011;5806;48.748;9.278;2023-04-06T15:07:30;8.97;;;6.60;;
11498;SDS011;5806;48.748;9.278;2023-04-06T15:09:58;9.20;;;6.03;;
11498;SDS011;5806;48.748;9.278;2023-04-06T15:12:25;8.93;;;6.63;;
11498;SDS011;5806;48.748;9.278;2023-04-06T15:14:54;9.33;;;6.50;;